createdAt,value
2018-06-01T00:00:33.556Z,985.50
2018-06-01T00:01:33.730Z,985.51
2018-06-01T00:02:37.449Z,985.53
2018-06-01T00:03:34.154Z,985.55
2018-06-01T00:04:34.284Z,985.57
2018-06-01T00:05:34.457Z,985.58
2018-06-01T00:06:34.635Z,985.57
2018-06-01T00:07:34.801Z,985.59
2018-06-01T00:08:34.971Z,985.60
2018-06-01T00:09:35.140Z,985.59
2018-06-01T00:10:35.315Z,985.60
2018-06-01T00:11:35.498Z,985.61
2018-06-01T00:12:35.667Z,985.61
2018-06-01T00:13:35.835Z,985.61
2018-06-01T00:14:36.016Z,985.61
2018-06-01T00:15:36.181Z,985.63
2018-06-01T00:16:36.351Z,985.59
2018-06-01T00:17:36.544Z,985.63
2018-06-01T00:18:36.692Z,985.60
2018-06-01T00:19:36.866Z,985.61
2018-06-01T00:20:37.036Z,985.60
2018-06-01T00:21:37.214Z,985.63
2018-06-01T00:22:37.382Z,985.65
2018-06-01T00:23:37.567Z,985.66
2018-06-01T00:24:37.831Z,985.70
2018-06-01T00:25:37.896Z,985.71
2018-06-01T00:26:38.060Z,985.72
2018-06-01T00:27:38.236Z,985.74
2018-06-01T00:28:38.406Z,985.78
2018-06-01T00:29:38.573Z,985.79
2018-06-01T00:30:38.748Z,985.79
2018-06-01T00:31:38.915Z,985.81
2018-06-01T00:32:39.090Z,985.79
2018-06-01T00:33:39.270Z,985.79
2018-06-01T00:34:39.468Z,985.79
2018-06-01T00:35:39.649Z,985.81
2018-06-01T00:36:39.819Z,985.84
2018-06-01T00:37:39.986Z,985.91
2018-06-01T00:38:40.156Z,985.89
2018-06-01T00:39:40.325Z,985.87
2018-06-01T00:40:40.493Z,985.93
2018-06-01T00:41:40.669Z,985.93
2018-06-01T00:42:40.844Z,985.90
2018-06-01T00:43:41.474Z,985.94
2018-06-01T00:44:42.391Z,985.89
2018-06-01T00:45:41.832Z,985.90
2018-06-01T00:46:42.156Z,985.87
2018-06-01T00:47:42.912Z,985.87
2018-06-01T00:48:42.739Z,985.86
2018-06-01T00:49:42.604Z,985.85
2018-06-01T00:50:43.025Z,985.84
2018-06-01T00:51:43.091Z,985.82
2018-06-01T00:52:43.205Z,985.80
2018-06-01T00:53:43.306Z,985.81
2018-06-01T00:54:43.614Z,985.77
2018-06-01T00:55:43.726Z,985.78
2018-06-01T00:56:43.396Z,985.74
2018-06-01T00:57:43.673Z,985.71
2018-06-01T00:58:43.771Z,985.76
2018-06-01T00:59:43.941Z,985.73
2018-06-01T01:00:44.117Z,985.73
2018-06-01T01:01:44.289Z,985.75
2018-06-01T01:02:44.468Z,985.79
2018-06-01T01:03:44.639Z,985.78
2018-06-01T01:04:44.812Z,985.81
2018-06-01T01:05:44.982Z,985.76
2018-06-01T01:06:45.161Z,985.74
2018-06-01T01:07:45.347Z,985.71
2018-06-01T01:08:45.520Z,985.76
2018-06-01T01:09:45.704Z,985.74
2018-06-01T01:10:45.939Z,985.73
2018-06-01T01:11:46.066Z,985.76
2018-06-01T01:12:46.242Z,985.76
2018-06-01T01:13:46.418Z,985.77
2018-06-01T01:14:46.760Z,985.75
2018-06-01T01:15:46.741Z,985.78
2018-06-01T01:16:47.052Z,985.78
2018-06-01T01:17:47.119Z,985.78
2018-06-01T01:18:47.294Z,985.83
2018-06-01T01:19:47.523Z,985.82
2018-06-01T01:20:47.690Z,985.88
2018-06-01T01:21:47.866Z,985.90
2018-06-01T01:22:48.037Z,985.89
2018-06-01T01:23:48.214Z,985.92
2018-06-01T01:24:48.510Z,985.91
2018-06-01T01:25:48.605Z,985.93
2018-06-01T01:26:48.858Z,985.89
2018-06-01T01:27:48.948Z,985.95
2018-06-01T01:28:49.040Z,985.95
2018-06-01T01:29:49.184Z,985.95
2018-06-01T01:30:49.357Z,985.92
2018-06-01T01:31:49.531Z,985.92
2018-06-01T01:32:49.852Z,985.99
2018-06-01T01:33:49.888Z,986.01
2018-06-01T01:34:50.067Z,986.01
2018-06-01T01:35:50.235Z,986.02
2018-06-01T01:36:50.409Z,986.04
2018-06-01T01:37:50.585Z,986.01
2018-06-01T01:38:50.752Z,985.96
2018-06-01T01:39:50.923Z,985.96
2018-06-01T01:40:51.101Z,985.95
2018-06-01T01:41:51.267Z,985.93
2018-06-01T01:42:51.453Z,985.91
2018-06-01T01:43:51.625Z,985.90
2018-06-01T01:44:51.791Z,985.95
2018-06-01T01:45:51.958Z,985.96
2018-06-01T01:46:52.133Z,986.01
2018-06-01T01:47:52.303Z,986.03
2018-06-01T01:48:52.477Z,985.97
2018-06-01T01:49:52.786Z,986.00
2018-06-01T01:50:52.851Z,986.02
2018-06-01T01:51:53.021Z,986.01
2018-06-01T01:52:53.195Z,986.01
2018-06-01T01:53:53.370Z,986.05
2018-06-01T01:54:53.550Z,986.09
2018-06-01T01:55:53.722Z,986.11
2018-06-01T01:56:53.911Z,986.07
2018-06-01T01:57:54.062Z,986.08
2018-06-01T01:58:54.237Z,986.04
2018-06-01T01:59:54.420Z,986.07
2018-06-01T02:00:54.591Z,986.10
2018-06-01T02:01:54.760Z,986.07
2018-06-01T02:02:54.934Z,986.09
2018-06-01T02:03:55.113Z,986.03
2018-06-01T02:04:55.289Z,986.08
2018-06-01T02:05:55.461Z,986.08
2018-06-01T02:06:55.632Z,986.08
2018-06-01T02:07:55.804Z,986.09
2018-06-01T02:08:55.973Z,986.11
2018-06-01T02:09:56.150Z,986.17
2018-06-01T02:10:56.327Z,986.16
2018-06-01T02:11:56.498Z,986.20
2018-06-01T02:12:56.668Z,986.21
2018-06-01T02:13:56.835Z,986.20
2018-06-01T02:14:57.015Z,986.19
2018-06-01T02:15:57.197Z,986.22
2018-06-01T02:16:57.412Z,986.16
2018-06-01T02:17:57.545Z,986.18
2018-06-01T02:18:57.718Z,986.18
2018-06-01T02:19:57.885Z,986.22
2018-06-01T02:20:58.062Z,986.15
2018-06-01T02:21:58.235Z,986.16
2018-06-01T02:22:58.405Z,986.15
2018-06-01T02:23:58.577Z,986.13
2018-06-01T02:24:58.756Z,986.14
2018-06-01T02:25:58.923Z,986.10
2018-06-01T02:26:59.097Z,986.05
2018-06-01T02:27:59.264Z,986.04
2018-06-01T02:28:59.442Z,986.03
2018-06-01T02:29:59.613Z,985.96
2018-06-01T02:30:59.784Z,985.98
2018-06-01T02:31:59.952Z,985.92
2018-06-01T02:33:00.130Z,985.89
2018-06-01T02:34:00.308Z,985.93
2018-06-01T02:35:00.473Z,985.94
2018-06-01T02:36:00.746Z,985.88
2018-06-01T02:37:00.776Z,985.94
2018-06-01T02:38:00.956Z,985.88
2018-06-01T02:39:01.127Z,985.87
2018-06-01T02:40:01.306Z,985.83
2018-06-01T02:41:01.478Z,985.86
2018-06-01T02:42:01.652Z,985.81
2018-06-01T02:43:01.825Z,985.85
2018-06-01T02:44:01.996Z,985.89
2018-06-01T02:45:02.168Z,985.93
2018-06-01T02:46:02.337Z,986.00
2018-06-01T02:47:02.513Z,986.02
2018-06-01T02:48:02.681Z,986.01
2018-06-01T02:49:02.847Z,986.07
2018-06-01T02:50:03.028Z,986.09
2018-06-01T02:51:03.202Z,986.11
2018-06-01T02:52:03.370Z,986.08
2018-06-01T02:53:03.538Z,986.06
2018-06-01T02:54:03.709Z,986.07
2018-06-01T02:55:03.871Z,986.08
2018-06-01T02:56:04.082Z,986.07
2018-06-01T02:57:04.263Z,986.02
2018-06-01T02:58:04.429Z,986.05
2018-06-01T02:59:04.605Z,986.06
2018-06-01T03:00:04.780Z,986.09
2018-06-01T03:01:04.947Z,986.16
2018-06-01T03:02:05.129Z,986.20
2018-06-01T03:03:05.293Z,986.26
2018-06-01T03:04:05.461Z,986.26
2018-06-01T03:05:05.632Z,986.27
2018-06-01T03:06:05.805Z,986.26
2018-06-01T03:07:05.977Z,986.27
2018-06-01T03:08:06.153Z,986.28
2018-06-01T03:09:06.323Z,986.28
2018-06-01T03:10:06.493Z,986.31
2018-06-01T03:11:06.672Z,986.31
2018-06-01T03:12:06.849Z,986.37
2018-06-01T03:13:07.016Z,986.40
2018-06-01T03:14:07.179Z,986.41
2018-06-01T03:15:07.369Z,986.42
2018-06-01T03:16:07.684Z,986.46
2018-06-01T03:17:07.775Z,986.40
2018-06-01T03:18:07.885Z,986.40
2018-06-01T03:19:08.065Z,986.42
2018-06-01T03:20:08.237Z,986.35
2018-06-01T03:21:08.410Z,986.39
2018-06-01T03:22:08.589Z,986.37
2018-06-01T03:23:08.757Z,986.36
2018-06-01T03:24:08.936Z,986.40
2018-06-01T03:25:09.108Z,986.38
2018-06-01T03:26:09.350Z,986.40
2018-06-01T03:27:09.453Z,986.40
2018-06-01T03:28:09.627Z,986.36
2018-06-01T03:29:09.799Z,986.37
2018-06-01T03:30:09.972Z,986.38
2018-06-01T03:31:10.147Z,986.41
2018-06-01T03:32:10.318Z,986.43
2018-06-01T03:33:10.494Z,986.37
2018-06-01T03:34:10.665Z,986.38
2018-06-01T03:35:10.847Z,986.27
2018-06-01T03:36:11.023Z,986.15
2018-06-01T03:37:11.200Z,986.06
2018-06-01T03:38:11.368Z,986.09
2018-06-01T03:39:11.540Z,986.07
2018-06-01T03:40:11.713Z,986.08
2018-06-01T03:41:11.889Z,986.03
2018-06-01T03:42:12.056Z,986.03
2018-06-01T03:43:12.234Z,986.05
2018-06-01T03:44:12.403Z,986.09
2018-06-01T03:45:12.575Z,986.10
2018-06-01T03:46:12.748Z,986.11
2018-06-01T03:47:12.921Z,986.10
2018-06-01T03:48:13.104Z,986.12
2018-06-01T03:49:13.294Z,986.13
2018-06-01T03:50:13.447Z,986.13
2018-06-01T03:51:13.619Z,986.15
2018-06-01T03:52:13.804Z,986.16
2018-06-01T03:53:13.973Z,986.20
2018-06-01T03:54:14.149Z,986.25
2018-06-01T03:55:14.331Z,986.26
2018-06-01T03:56:14.506Z,986.26
2018-06-01T03:57:14.679Z,986.24
2018-06-01T03:58:14.851Z,986.21
2018-06-01T03:59:15.017Z,986.24
2018-06-01T04:00:15.192Z,986.15
2018-06-01T04:01:15.365Z,986.18
2018-06-01T04:02:15.538Z,986.15
2018-06-01T04:03:15.704Z,986.12
2018-06-01T04:04:15.879Z,986.12
2018-06-01T04:05:16.052Z,986.15
2018-06-01T04:06:16.223Z,986.12
2018-06-01T04:07:16.397Z,986.08
2018-06-01T04:08:16.566Z,986.07
2018-06-01T04:09:16.742Z,986.04
2018-06-01T04:10:16.904Z,985.99
2018-06-01T04:11:17.077Z,985.96
2018-06-01T04:12:17.252Z,985.94
2018-06-01T04:13:17.429Z,985.97
2018-06-01T04:14:17.598Z,985.94
2018-06-01T04:15:17.776Z,985.98
2018-06-01T04:16:17.951Z,985.95
2018-06-01T04:17:18.115Z,985.95
2018-06-01T04:18:18.295Z,985.99
2018-06-01T04:19:18.462Z,986.01
2018-06-01T04:20:18.630Z,986.06
2018-06-01T04:21:18.805Z,986.06
2018-06-01T04:22:18.977Z,986.08
2018-06-01T04:23:19.149Z,986.08
2018-06-01T04:24:19.324Z,986.04
2018-06-01T04:25:19.494Z,986.00
2018-06-01T04:26:19.668Z,985.98
2018-06-01T04:27:19.844Z,985.96
2018-06-01T04:28:20.019Z,985.94
2018-06-01T04:29:20.192Z,985.95
2018-06-01T04:30:20.372Z,985.92
2018-06-01T04:31:20.530Z,985.93
2018-06-01T04:32:20.718Z,985.95
2018-06-01T04:33:20.882Z,985.91
2018-06-01T04:34:21.058Z,985.97
2018-06-01T04:35:21.231Z,985.95
2018-06-01T04:36:21.409Z,986.03
2018-06-01T04:37:21.573Z,986.01
2018-06-01T04:38:21.744Z,985.99
2018-06-01T04:39:21.916Z,985.98
2018-06-01T04:40:22.089Z,986.01
2018-06-01T04:41:22.272Z,986.07
2018-06-01T04:42:22.441Z,986.07
2018-06-01T04:43:22.616Z,986.11
2018-06-01T04:44:22.786Z,986.11
2018-06-01T04:45:22.957Z,986.10
2018-06-01T04:46:23.126Z,986.11
2018-06-01T04:47:23.304Z,986.14
2018-06-01T04:48:23.482Z,986.18
2018-06-01T04:49:23.660Z,986.17
2018-06-01T04:50:23.826Z,986.18
2018-06-01T04:51:24.004Z,986.21
2018-06-01T04:52:24.178Z,986.21
2018-06-01T04:53:24.349Z,986.26
2018-06-01T04:54:24.519Z,986.30
2018-06-01T04:55:24.691Z,986.28
2018-06-01T04:56:24.869Z,986.25
2018-06-01T04:57:25.049Z,986.27
2018-06-01T04:58:25.218Z,986.27
2018-06-01T04:59:25.400Z,986.30
2018-06-01T05:00:25.572Z,986.29
2018-06-01T05:01:25.747Z,986.29
2018-06-01T05:02:25.919Z,986.34
2018-06-01T05:03:26.088Z,986.33
2018-06-01T05:04:26.265Z,986.36
2018-06-01T05:05:26.437Z,986.32
2018-06-01T05:06:26.617Z,986.39
2018-06-01T05:07:26.791Z,986.36
2018-06-01T05:08:26.970Z,986.38
2018-06-01T05:09:27.138Z,986.36
2018-06-01T05:10:27.317Z,986.39
2018-06-01T05:11:27.482Z,986.39
2018-06-01T05:12:27.655Z,986.40
2018-06-01T05:13:27.827Z,986.42
2018-06-01T05:14:27.998Z,986.42
2018-06-01T05:15:28.169Z,986.41
2018-06-01T05:16:28.340Z,986.39
2018-06-01T05:17:28.512Z,986.42
2018-06-01T05:18:28.686Z,986.41
2018-06-01T05:19:28.859Z,986.45
2018-06-01T05:20:29.032Z,986.44
2018-06-01T05:21:29.207Z,986.44
2018-06-01T05:22:29.374Z,986.41
2018-06-01T05:23:29.548Z,986.43
2018-06-01T05:24:29.714Z,986.41
2018-06-01T05:25:29.886Z,986.42
2018-06-01T05:26:30.061Z,986.47
2018-06-01T05:27:30.239Z,986.47
2018-06-01T05:28:30.418Z,986.53
2018-06-01T05:29:30.594Z,986.51
2018-06-01T05:30:30.765Z,986.52
2018-06-01T05:31:30.939Z,986.54
2018-06-01T05:32:31.113Z,986.58
2018-06-01T05:33:31.283Z,986.62
2018-06-01T05:34:31.460Z,986.67
2018-06-01T05:35:31.684Z,986.73
2018-06-01T05:36:31.809Z,986.78
2018-06-01T05:37:31.984Z,986.80
2018-06-01T05:38:32.167Z,986.82
2018-06-01T05:39:32.373Z,986.85
2018-06-01T05:40:32.516Z,986.87
2018-06-01T05:41:32.687Z,986.90
2018-06-01T05:42:32.858Z,986.92
2018-06-01T05:43:33.032Z,987.00
2018-06-01T05:44:33.210Z,986.97
2018-06-01T05:45:33.384Z,987.01
2018-06-01T05:46:33.556Z,986.99
2018-06-01T05:47:33.736Z,986.99
2018-06-01T05:48:33.903Z,986.99
2018-06-01T05:49:34.085Z,986.98
2018-06-01T05:50:34.248Z,987.00
2018-06-01T05:51:34.424Z,986.99
2018-06-01T05:52:34.596Z,987.01
2018-06-01T05:53:34.767Z,987.03
2018-06-01T05:54:34.934Z,987.01
2018-06-01T05:55:35.108Z,987.04
2018-06-01T05:56:35.337Z,987.00
2018-06-01T05:57:35.456Z,987.04
2018-06-01T05:58:35.627Z,987.04
2018-06-01T05:59:35.800Z,987.03
2018-06-01T06:00:35.973Z,987.04
2018-06-01T06:01:36.140Z,987.07
2018-06-01T06:02:36.319Z,987.04
2018-06-01T06:03:36.488Z,987.01
2018-06-01T06:04:36.679Z,987.00
2018-06-01T06:05:36.831Z,987.00
2018-06-01T06:06:37.011Z,986.95
2018-06-01T06:07:37.187Z,986.99
2018-06-01T06:08:37.358Z,986.99
2018-06-01T06:09:37.541Z,987.03
2018-06-01T06:10:37.706Z,986.97
2018-06-01T06:11:37.880Z,987.00
2018-06-01T06:12:38.050Z,987.05
2018-06-01T06:13:38.282Z,987.07
2018-06-01T06:14:38.387Z,987.08
2018-06-01T06:15:38.562Z,987.11
2018-06-01T06:16:38.733Z,987.12
2018-06-01T06:17:38.921Z,987.10
2018-06-01T06:18:39.086Z,987.10
2018-06-01T06:19:39.257Z,987.09
2018-06-01T06:20:39.434Z,987.08
2018-06-01T06:21:39.610Z,987.09
2018-06-01T06:22:39.775Z,987.12
2018-06-01T06:23:39.947Z,987.13
2018-06-01T06:24:40.127Z,987.15
2018-06-01T06:25:40.306Z,987.17
2018-06-01T06:26:40.479Z,987.19
2018-06-01T06:27:40.663Z,987.18
2018-06-01T06:28:40.830Z,987.19
2018-06-01T06:29:41.004Z,987.23
2018-06-01T06:30:41.176Z,987.21
2018-06-01T06:31:41.351Z,987.23
2018-06-01T06:32:41.521Z,987.25
2018-06-01T06:33:41.696Z,987.27
2018-06-01T06:34:41.865Z,987.39
2018-06-01T06:35:42.034Z,987.45
2018-06-01T06:36:42.207Z,987.49
2018-06-01T06:37:42.388Z,987.54
2018-06-01T06:38:42.549Z,987.53
2018-06-01T06:39:42.718Z,987.46
2018-06-01T06:40:42.888Z,987.40
2018-06-01T06:41:43.065Z,987.41
2018-06-01T06:42:43.237Z,987.36
2018-06-01T06:43:43.407Z,987.38
2018-06-01T06:44:43.579Z,987.40
2018-06-01T06:45:43.745Z,987.39
2018-06-01T06:46:43.917Z,987.34
2018-06-01T06:47:44.086Z,987.34
2018-06-01T06:48:44.260Z,987.38
2018-06-01T06:49:44.429Z,987.34
2018-06-01T06:50:44.598Z,987.29
2018-06-01T06:51:44.777Z,987.32
2018-06-01T06:52:44.949Z,987.32
2018-06-01T06:53:45.118Z,987.34
2018-06-01T06:54:45.288Z,987.33
2018-06-01T06:55:45.465Z,987.33
2018-06-01T06:56:45.638Z,987.31
2018-06-01T06:57:45.806Z,987.33
2018-06-01T06:58:45.980Z,987.40
2018-06-01T06:59:47.223Z,987.40
2018-06-01T07:00:46.329Z,987.49
2018-06-01T07:01:46.502Z,987.48
2018-06-01T07:02:46.728Z,987.51
2018-06-01T07:03:46.847Z,987.54
2018-06-01T07:04:47.013Z,987.52
2018-06-01T07:05:47.184Z,987.55
2018-06-01T07:06:47.367Z,987.54
2018-06-01T07:07:47.539Z,987.50
2018-06-01T07:08:47.704Z,987.51
2018-06-01T07:09:47.886Z,987.58
2018-06-01T07:10:48.073Z,987.56
2018-06-01T07:11:48.232Z,987.61
2018-06-01T07:12:48.405Z,987.60
2018-06-01T07:13:48.589Z,987.63
2018-06-01T07:14:48.757Z,987.63
2018-06-01T07:15:49.159Z,987.58
2018-06-01T07:16:49.148Z,987.63
2018-06-01T07:17:49.325Z,987.59
2018-06-01T07:18:49.500Z,987.61
2018-06-01T07:19:49.769Z,987.69
2018-06-01T07:20:49.929Z,987.64
2018-06-01T07:21:50.033Z,987.68
2018-06-01T07:22:50.202Z,987.66
2018-06-01T07:23:50.389Z,987.66
2018-06-01T07:24:50.570Z,987.69
2018-06-01T07:25:50.722Z,987.71
2018-06-01T07:26:50.897Z,987.74
2018-06-01T07:27:51.067Z,987.74
2018-06-01T07:28:51.235Z,987.72
2018-06-01T07:29:51.405Z,987.67
2018-06-01T07:30:51.586Z,987.71
2018-06-01T07:31:51.749Z,987.74
2018-06-01T07:32:51.918Z,987.71
2018-06-01T07:33:52.498Z,987.73
2018-06-01T07:34:52.410Z,987.75
2018-06-01T07:35:52.473Z,987.77
2018-06-01T07:36:52.644Z,987.80
2018-06-01T07:37:52.819Z,987.79
2018-06-01T07:38:53.004Z,987.76
2018-06-01T07:39:53.166Z,987.75
2018-06-01T07:40:53.335Z,987.72
2018-06-01T07:41:53.505Z,987.75
2018-06-01T07:42:53.679Z,987.75
2018-06-01T07:43:53.856Z,987.72
2018-06-01T07:44:54.030Z,987.70
2018-06-01T07:45:54.202Z,987.71
2018-06-01T07:46:54.418Z,987.74
2018-06-01T07:47:54.549Z,987.75
2018-06-01T07:48:54.721Z,987.73
2018-06-01T07:49:54.892Z,987.70
2018-06-01T07:50:55.072Z,987.70
2018-06-01T07:51:55.240Z,987.67
2018-06-01T07:52:55.415Z,987.67
2018-06-01T07:53:55.590Z,987.71
2018-06-01T07:54:55.766Z,987.74
2018-06-01T07:55:55.944Z,987.75
2018-06-01T07:56:56.118Z,987.74
2018-06-01T07:57:56.294Z,987.75
2018-06-01T07:58:56.470Z,987.73
2018-06-01T07:59:56.646Z,987.77
2018-06-01T08:00:57.055Z,987.80
2018-06-01T08:01:57.565Z,987.77
2018-06-01T08:02:57.169Z,987.74
2018-06-01T08:03:57.340Z,987.76
2018-06-01T08:04:57.526Z,987.81
2018-06-01T08:05:57.690Z,987.81
2018-06-01T08:06:58.099Z,987.82
2018-06-01T08:07:58.037Z,987.87
2018-06-01T08:08:58.211Z,987.87
2018-06-01T08:09:58.372Z,987.88
2018-06-01T08:10:58.561Z,987.87
2018-06-01T08:11:58.732Z,987.85
2018-06-01T08:13:00.051Z,987.95
2018-06-01T08:13:59.119Z,987.93
2018-06-01T08:14:59.602Z,987.96
2018-06-01T08:15:59.457Z,987.97
2018-06-01T08:16:59.632Z,987.94
2018-06-01T08:17:59.807Z,987.99
2018-06-01T08:18:59.976Z,987.90
2018-06-01T08:20:00.156Z,987.94
2018-06-01T08:21:00.328Z,987.94
2018-06-01T08:22:00.581Z,987.96
2018-06-01T08:23:00.681Z,987.96
2018-06-01T08:24:00.871Z,987.96
2018-06-01T08:25:01.064Z,987.92
2018-06-01T08:26:01.294Z,987.91
2018-06-01T08:27:01.467Z,987.89
2018-06-01T08:28:01.611Z,987.98
2018-06-01T08:29:01.778Z,988.00
2018-06-01T08:30:02.090Z,987.98
2018-06-01T08:31:02.147Z,987.95
2018-06-01T08:32:02.352Z,987.92
2018-06-01T08:33:02.521Z,987.98
2018-06-01T08:34:02.706Z,988.00
2018-06-01T08:35:02.888Z,988.07
2018-06-01T08:36:03.065Z,988.13
2018-06-01T08:37:03.250Z,988.17
2018-06-01T08:38:03.413Z,988.16
2018-06-01T08:39:03.585Z,988.12
2018-06-01T08:40:03.758Z,988.16
2018-06-01T08:41:03.983Z,988.18
2018-06-01T08:42:04.115Z,988.20
2018-06-01T08:43:04.269Z,988.19
2018-06-01T08:44:04.434Z,988.12
2018-06-01T08:45:04.618Z,988.19
2018-06-01T08:46:04.798Z,988.16
2018-06-01T08:47:04.967Z,988.16
2018-06-01T08:48:05.238Z,988.16
2018-06-01T08:49:05.339Z,988.10
2018-06-01T08:50:05.516Z,988.12
2018-06-01T08:51:05.693Z,988.12
2018-06-01T08:52:05.923Z,988.15
2018-06-01T08:53:06.081Z,988.16
2018-06-01T08:54:06.243Z,988.11
2018-06-01T08:55:06.436Z,988.10
2018-06-01T08:56:06.619Z,988.09
2018-06-01T08:57:06.788Z,988.14
2018-06-01T08:58:06.980Z,988.15
2018-06-01T08:59:07.223Z,988.19
2018-06-01T09:00:07.311Z,988.17
2018-06-01T09:01:07.476Z,988.22
2018-06-01T09:02:07.658Z,988.18
2018-06-01T09:03:07.826Z,988.24
2018-06-01T09:04:08.011Z,988.24
2018-06-01T09:05:08.202Z,988.27
2018-06-01T09:06:09.058Z,988.30
2018-06-01T09:07:08.537Z,988.30
2018-06-01T09:08:08.719Z,988.25
2018-06-01T09:09:08.896Z,988.29
2018-06-01T09:10:09.128Z,988.31
2018-06-01T09:11:09.244Z,988.36
2018-06-01T09:12:09.421Z,988.42
2018-06-01T09:13:09.597Z,988.38
2018-06-01T09:14:09.779Z,988.42
2018-06-01T09:15:09.956Z,988.40
2018-06-01T09:16:10.129Z,988.37
2018-06-01T09:17:10.303Z,988.30
2018-06-01T09:18:10.480Z,988.32
2018-06-01T09:19:10.661Z,988.36
2018-06-01T09:20:10.888Z,988.27
2018-06-01T09:21:11.006Z,988.28
2018-06-01T09:22:11.270Z,988.28
2018-06-01T09:23:11.379Z,988.30
2018-06-01T09:24:11.558Z,988.30
2018-06-01T09:25:11.738Z,988.30
2018-06-01T09:26:11.910Z,988.28
2018-06-01T09:27:12.093Z,988.29
2018-06-01T09:28:12.282Z,988.32
2018-06-01T09:29:12.450Z,988.30
2018-06-01T09:30:12.619Z,988.31
2018-06-01T09:31:12.795Z,988.30
2018-06-01T09:32:12.977Z,988.25
2018-06-01T09:33:13.157Z,988.31
2018-06-01T09:34:13.326Z,988.35
2018-06-01T09:35:13.501Z,988.32
2018-06-01T09:36:13.678Z,988.34
2018-06-01T09:37:13.857Z,988.32
2018-06-01T09:38:14.028Z,988.29
2018-06-01T09:39:14.397Z,988.25
2018-06-01T09:40:14.365Z,988.21
2018-06-01T09:41:14.543Z,988.28
2018-06-01T09:42:14.718Z,988.24
2018-06-01T09:43:14.892Z,988.29
2018-06-01T09:44:15.069Z,988.30
2018-06-01T09:45:15.245Z,988.28
2018-06-01T09:46:15.499Z,988.34
2018-06-01T09:47:15.657Z,988.26
2018-06-01T09:48:15.872Z,988.29
2018-06-01T09:49:16.044Z,988.29
2018-06-01T09:50:16.219Z,988.36
2018-06-01T09:51:16.390Z,988.36
2018-06-01T09:52:16.573Z,988.27
2018-06-01T09:53:16.742Z,988.25
2018-06-01T09:54:16.924Z,988.25
2018-06-01T09:55:17.099Z,988.27
2018-06-01T09:56:17.274Z,988.32
2018-06-01T09:57:17.453Z,988.29
2018-06-01T09:58:17.661Z,988.27
2018-06-01T09:59:17.832Z,988.29
2018-06-01T10:00:18.004Z,988.29
2018-06-01T10:01:18.181Z,988.23
2018-06-01T10:02:18.518Z,988.20
2018-06-01T10:03:18.484Z,988.15
2018-06-01T10:04:18.664Z,988.12
2018-06-01T10:05:18.835Z,988.24
2018-06-01T10:06:19.010Z,988.17
2018-06-01T10:07:19.180Z,988.19
2018-06-01T10:08:19.353Z,988.28
2018-06-01T10:09:19.526Z,988.24
2018-06-01T10:10:19.704Z,988.36
2018-06-01T10:11:19.879Z,988.32
2018-06-01T10:12:20.078Z,988.30
2018-06-01T10:13:20.228Z,988.31
2018-06-01T10:14:20.401Z,988.35
2018-06-01T10:15:20.648Z,988.43
2018-06-01T10:16:20.700Z,988.38
2018-06-01T10:17:20.868Z,988.49
2018-06-01T10:18:21.051Z,988.63
2018-06-01T10:19:21.226Z,988.47
2018-06-01T10:20:21.398Z,988.50
2018-06-01T10:21:21.576Z,988.42
2018-06-01T10:22:21.760Z,988.33
2018-06-01T10:23:21.933Z,988.25
2018-06-01T10:24:22.104Z,988.27
2018-06-01T10:25:22.285Z,988.26
2018-06-01T10:26:22.464Z,988.30
2018-06-01T10:27:22.635Z,988.33
2018-06-01T10:28:22.813Z,988.32
2018-06-01T10:29:22.985Z,988.32
2018-06-01T10:30:23.166Z,988.36
2018-06-01T10:31:23.345Z,988.49
2018-06-01T10:32:23.529Z,988.63
2018-06-01T10:33:23.805Z,988.69
2018-06-01T10:34:23.862Z,988.70
2018-06-01T10:35:24.035Z,988.83
2018-06-01T10:36:24.336Z,988.83
2018-06-01T10:37:24.385Z,988.70
2018-06-01T10:38:24.564Z,988.54
2018-06-01T10:39:24.744Z,988.52
2018-06-01T10:40:24.914Z,988.52
2018-06-01T10:41:25.091Z,988.42
2018-06-01T10:42:25.274Z,988.73
2018-06-01T10:43:25.454Z,988.97
2018-06-01T10:44:25.628Z,988.69
2018-06-01T10:45:25.809Z,988.88
2018-06-01T10:46:25.992Z,988.72
2018-06-01T10:47:26.162Z,988.50
2018-06-01T10:48:26.349Z,988.41
2018-06-01T10:49:26.529Z,988.70
2018-06-01T10:50:26.707Z,988.94
2018-06-01T10:51:26.887Z,988.94
2018-06-01T10:52:27.053Z,988.82
2018-06-01T10:53:27.235Z,988.84
2018-06-01T10:54:27.437Z,989.06
2018-06-01T10:55:27.608Z,988.84
2018-06-01T10:56:27.794Z,989.04
2018-06-01T10:57:27.988Z,989.05
2018-06-01T10:58:28.169Z,989.01
2018-06-01T10:59:28.361Z,989.07
2018-06-01T11:00:28.537Z,989.16
2018-06-01T11:01:28.734Z,989.15
2018-06-01T11:02:28.909Z,988.70
2018-06-01T11:03:29.091Z,988.90
2018-06-01T11:04:29.278Z,989.00
2018-06-01T11:05:29.462Z,988.89
2018-06-01T11:06:29.644Z,988.79
2018-06-01T11:07:29.839Z,988.77
2018-06-01T11:08:30.019Z,988.74
2018-06-01T11:09:30.207Z,988.71
2018-06-01T11:10:30.402Z,988.82
2018-06-01T11:11:30.579Z,988.72
2018-06-01T11:12:30.761Z,988.75
2018-06-01T11:13:30.945Z,988.79
2018-06-01T11:14:31.158Z,988.85
2018-06-01T11:15:31.324Z,989.01
2018-06-01T11:16:31.520Z,988.63
2018-06-01T11:17:31.700Z,988.93
2018-06-01T11:18:31.921Z,988.97
2018-06-01T11:20:25.220Z,988.52
2018-06-01T11:21:25.485Z,988.43
2018-06-01T11:22:25.831Z,988.53
2018-06-01T11:23:25.877Z,988.63
2018-06-01T11:24:26.066Z,988.67
2018-06-01T11:25:26.283Z,988.65
2018-06-01T11:26:26.437Z,988.74
2018-06-01T11:27:26.628Z,988.83
2018-06-01T11:28:26.810Z,988.80
2018-06-01T11:29:27.006Z,988.93
2018-06-01T11:30:27.198Z,988.85
2018-06-01T11:31:27.389Z,988.80
2018-06-01T11:32:27.572Z,988.89
2018-06-01T11:33:27.765Z,988.49
2018-06-01T11:34:27.960Z,988.15
2018-06-01T11:35:28.146Z,988.18
2018-06-01T11:36:28.334Z,988.13
2018-06-01T11:37:28.540Z,988.09
2018-06-01T11:38:28.761Z,988.15
2018-06-01T11:39:28.915Z,988.27
2018-06-01T11:40:29.104Z,988.26
2018-06-01T11:41:29.300Z,988.16
2018-06-01T11:42:29.485Z,988.12
2018-06-01T11:43:29.690Z,988.11
2018-06-01T11:44:29.864Z,988.16
2018-06-01T11:45:30.053Z,988.21
2018-06-01T11:46:30.228Z,988.17
2018-06-01T11:47:30.417Z,988.26
2018-06-01T11:48:30.616Z,988.30
2018-06-01T11:49:30.821Z,988.35
2018-06-01T11:50:31.043Z,988.22
2018-06-01T11:51:31.159Z,988.24
2018-06-01T11:52:31.341Z,988.16
2018-06-01T11:53:31.692Z,988.18
2018-06-01T11:54:31.727Z,988.54
2018-06-01T11:55:31.928Z,988.68
2018-06-01T11:56:32.104Z,988.59
2018-06-01T11:57:32.270Z,988.60
2018-06-01T11:58:32.457Z,988.08
2018-06-01T11:59:32.642Z,988.13
2018-06-01T12:00:32.824Z,988.04
2018-06-01T12:01:33.008Z,988.08
2018-06-01T12:02:33.193Z,988.46
2018-06-01T12:03:33.375Z,988.39
2018-06-01T12:04:33.561Z,988.45
2018-06-01T12:05:33.737Z,988.44
2018-06-01T12:06:33.918Z,988.46
2018-06-01T12:07:34.111Z,988.35
2018-06-01T12:08:34.291Z,988.31
2018-06-01T12:09:34.486Z,988.37
2018-06-01T12:10:34.678Z,988.29
2018-06-01T12:11:34.856Z,988.29
2018-06-01T12:12:35.036Z,988.30
2018-06-01T12:13:35.229Z,988.35
2018-06-01T12:14:35.427Z,988.00
2018-06-01T12:15:35.612Z,988.13
2018-06-01T12:16:35.809Z,988.10
2018-06-01T12:17:36.069Z,988.05
2018-06-01T12:18:36.187Z,987.92
2018-06-01T12:19:36.363Z,988.20
2018-06-01T12:20:36.561Z,988.01
2018-06-01T12:21:36.742Z,988.04
2018-06-01T12:22:36.934Z,988.07
2018-06-01T12:23:37.122Z,988.19
2018-06-01T12:24:37.306Z,987.97
2018-06-01T12:25:37.501Z,987.97
2018-06-01T12:26:37.683Z,987.93
2018-06-01T12:27:37.877Z,987.98
2018-06-01T12:28:38.063Z,987.92
2018-06-01T12:29:38.247Z,987.87
2018-06-01T12:30:38.427Z,987.82
2018-06-01T12:31:38.614Z,987.83